Time;durP1;ratioP1;P1;durP2;ratioP2;P2;SDS_P1;SDS_P2;PMS_P1;PMS_P2;Temp;Humidity;BMP_temperature;BMP_pressure;BME280_temperature;BME280_humidity;BME280_pressure;Samples;Min_cycle;Max_cycle;Signal;HPM_P1;HPM_P2
2022/09/29 00:00:21;;;;;;;10.53;8.67;;;9.20;99.90;;;;;;5032921;28;20195;-52
2022/09/29 00:02:47;;;;;;;10.00;9.00;;;9.20;99.90;;;;;;5032093;28;20437;-52
2022/09/29 00:05:12;;;;;;;12.27;9.70;;;9.20;99.90;;;;;;5032675;28;20437;-47
2022/09/29 00:07:38;;;;;;;9.70;8.40;;;9.20;99.90;;;;;;5032704;28;20542;-48
2022/09/29 00:10:04;;;;;;;10.27;9.27;;;9.20;99.90;;;;;;5032606;28;20218;-51
2022/09/29 00:12:29;;;;;;;10.67;9.57;;;9.20;99.90;;;;;;5032291;28;20198;-53
2022/09/29 00:14:55;;;;;;;10.87;9.47;;;9.10;99.90;;;;;;5031960;28;20429;-49
2022/09/29 00:17:21;;;;;;;10.93;9.83;;;9.30;99.90;;;;;;5032823;28;20698;-48
2022/09/29 00:19:47;;;;;;;10.43;9.37;;;9.10;99.90;;;;;;5033545;28;20198;-48
2022/09/29 00:22:12;;;;;;;10.03;9.03;;;9.00;99.90;;;;;;5032587;28;20417;-53
2022/09/29 00:24:38;;;;;;;10.57;8.80;;;8.90;99.90;;;;;;5031820;28;20197;-50
2022/09/29 00:27:04;;;;;;;8.80;7.90;;;8.60;99.90;;;;;;5032463;28;20202;-49
2022/09/29 00:29:29;;;;;;;9.23;8.23;;;8.60;99.90;;;;;;5032155;28;20660;-49
2022/09/29 00:31:55;;;;;;;9.57;8.60;;;8.60;99.90;;;;;;5032367;28;20654;-47
2022/09/29 00:34:20;;;;;;;10.87;9.23;;;8.40;99.90;;;;;;5031671;28;20186;-49
2022/09/29 00:36:46;;;;;;;9.30;8.43;;;8.30;99.90;;;;;;5032365;28;20657;-48
2022/09/29 00:39:12;;;;;;;9.17;8.07;;;8.20;99.90;;;;;;5032087;28;20588;-51
2022/09/29 00:41:39;;;;;;;11.33;10.13;;;8.40;99.90;;;;;;5032171;28;20187;-51
2022/09/29 00:44:06;;;;;;;11.00;9.13;;;8.30;99.90;;;;;;5031161;28;20880;-51
2022/09/29 00:46:53;;;;;;;12.60;9.43;;;8.70;99.90;;;;;;5032187;28;20413;-51
2022/09/29 00:49:28;;;;;;;11.57;9.23;;;8.70;99.90;;;;;;5031928;28;20809;-51
2022/09/29 00:52:08;;;;;;;9.77;8.77;;;8.80;99.90;;;;;;5032015;28;20650;-53
2022/09/29 00:54:57;;;;;;;10.17;8.97;;;8.80;99.90;;;;;;5029715;28;20437;-48
2022/09/29 00:57:28;;;;;;;11.80;9.57;;;8.80;99.90;;;;;;5031592;28;20460;-47
2022/09/29 01:00:06;;;;;;;10.63;8.80;;;8.80;99.90;;;;;;5031750;28;20526;-47
2022/09/29 01:02:35;;;;;;;10.17;9.17;;;8.70;99.90;;;;;;5030372;28;20429;-50
2022/09/29 01:05:05;;;;;;;11.10;10.00;;;8.80;99.90;;;;;;5030786;28;20939;-47
2022/09/29 01:07:32;;;;;;;12.17;9.43;;;8.70;99.90;;;;;;5030690;28;20421;-47
2022/09/29 01:09:59;;;;;;;10.17;9.03;;;8.70;99.90;;;;;;5030843;28;20523;-50
2022/09/29 01:12:25;;;;;;;12.07;10.47;;;9.10;99.90;;;;;;5031403;28;20405;-52
2022/09/29 01:14:53;;;;;;;12.17;9.23;;;8.90;99.90;;;;;;5031003;28;20428;-51
2022/09/29 01:17:18;;;;;;;10.83;9.60;;;8.90;99.90;;;;;;5031240;28;20431;-51
2022/09/29 01:20:03;;;;;;;12.23;10.57;;;9.00;99.90;;;;;;5032310;28;21114;-53
2022/09/29 01:22:49;;;;;;;9.90;8.90;;;8.90;99.90;;;;;;5031344;28;20189;-54
2022/09/29 01:25:21;;;;;;;11.40;9.83;;;8.90;99.90;;;;;;5029827;28;20421;-52
2022/09/29 01:27:54;;;;;;;10.17;8.90;;;9.00;99.90;;;;;;5031053;28;20444;-53
2022/09/29 01:30:56;;;;;;;10.20;9.20;;;9.00;99.90;;;;;;5031352;28;20464;-51
2022/09/29 01:33:43;;;;;;;10.47;9.40;;;9.00;99.90;;;;;;5030689;28;20416;-53
2022/09/29 01:36:20;;;;;;;11.50;9.30;;;9.00;99.90;;;;;;5031152;28;20417;-49
2022/09/29 01:39:13;;;;;;;11.70;9.23;;;9.00;99.90;;;;;;5031073;28;20420;-50
2022/09/29 01:42:16;;;;;;;11.27;9.50;;;9.00;99.90;;;;;;5031067;28;20416;-51
2022/09/29 01:44:43;;;;;;;14.13;9.73;;;9.20;99.90;;;;;;5030547;28;20451;-49
2022/09/29 01:47:27;;;;;;;10.13;9.07;;;9.00;99.90;;;;;;5030862;28;20513;-52
2022/09/29 01:50:03;;;;;;;10.17;8.60;;;9.10;99.90;;;;;;5030749;28;20456;-48
2022/09/29 01:52:32;;;;;;;11.13;9.03;;;9.00;99.90;;;;;;5030394;28;20428;-54
2022/09/29 01:55:11;;;;;;;11.27;8.73;;;9.10;99.90;;;;;;5028539;28;20424;-51
2022/09/29 01:57:44;;;;;;;10.33;9.23;;;9.10;99.90;;;;;;5030784;28;20471;-52
2022/09/29 02:00:12;;;;;;;12.93;9.80;;;8.90;99.90;;;;;;5030628;28;20444;-54
2022/09/29 02:02:54;;;;;;;10.80;9.13;;;9.00;99.90;;;;;;5030185;28;20432;-49
2022/09/29 02:05:44;;;;;;;9.30;8.40;;;8.80;99.90;;;;;;5030399;28;20488;-51
2022/09/29 02:08:15;;;;;;;10.60;9.27;;;9.00;99.90;;;;;;5029579;28;20422;-52
2022/09/29 02:10:52;;;;;;;9.57;8.47;;;9.10;99.90;;;;;;5030559;28;20484;-53
2022/09/29 02:13:20;;;;;;;8.83;7.93;;;9.00;99.90;;;;;;5029445;28;20503;-52
2022/09/29 02:15:49;;;;;;;11.40;8.80;;;9.00;99.90;;;;;;5030365;28;20516;-49
2022/09/29 02:18:22;;;;;;;10.50;8.80;;;8.90;99.90;;;;;;5030256;28;20452;-50
2022/09/29 02:20:49;;;;;;;9.70;8.70;;;8.80;99.90;;;;;;5031032;28;20521;-52
2022/09/29 02:23:15;;;;;;;9.90;8.90;;;8.80;99.90;;;;;;5029575;28;20516;-51
2022/09/29 02:25:42;;;;;;;11.07;8.90;;;8.70;99.90;;;;;;5030299;28;20858;-52
2022/09/29 02:28:08;;;;;;;15.37;9.57;;;8.80;99.90;;;;;;5029842;28;20194;-51
2022/09/29 02:30:34;;;;;;;9.80;8.80;;;8.90;99.90;;;;;;5030361;28;20520;-47
2022/09/29 02:33:00;;;;;;;11.13;9.47;;;9.00;99.90;;;;;;5029456;28;20457;-53
2022/09/29 02:35:49;;;;;;;10.57;9.17;;;8.70;99.90;;;;;;5030236;28;20421;-50
2022/09/29 02:38:29;;;;;;;10.67;9.50;;;8.70;99.90;;;;;;5030021;28;20229;-50
2022/09/29 02:41:06;;;;;;;10.77;9.67;;;8.80;99.90;;;;;;5030220;28;20775;-50
2022/09/29 02:44:13;;;;;;;12.07;9.47;;;8.70;99.90;;;;;;5029372;28;20531;-53
2022/09/29 02:47:18;;;;;;;14.70;9.10;;;8.80;99.90;;;;;;5030027;28;20425;-50
2022/09/29 02:50:03;;;;;;;12.53;10.10;;;8.70;99.90;;;;;;5029984;28;20476;-50
2022/09/29 02:52:50;;;;;;;12.53;10.50;;;8.80;99.90;;;;;;5029788;28;20409;-50
2022/09/29 02:55:30;;;;;;;12.47;9.53;;;8.80;99.90;;;;;;5028035;28;20494;-50
2022/09/29 02:58:06;;;;;;;10.80;9.70;;;8.70;99.90;;;;;;5029972;28;20802;-50
2022/09/29 03:00:32;;;;;;;10.27;8.40;;;8.80;99.90;;;;;;5029979;28;20420;-53
2022/09/29 03:02:58;;;;;;;13.00;10.47;;;9.00;99.90;;;;;;5029330;28;20951;-51
2022/09/29 03:05:24;;;;;;;12.10;10.60;;;9.10;99.90;;;;;;5029393;28;20446;-49
2022/09/29 03:07:50;;;;;;;10.33;9.17;;;9.20;99.90;;;;;;5028543;28;20190;-49
2022/09/29 03:10:17;;;;;;;9.63;8.73;;;9.00;99.90;;;;;;5029615;28;20460;-50
2022/09/29 03:12:43;;;;;;;10.50;9.00;;;9.10;99.90;;;;;;5027945;28;20425;-50
2022/09/29 03:15:11;;;;;;;11.97;9.47;;;9.00;99.90;;;;;;5029589;28;20425;-52
2022/09/29 03:17:37;;;;;;;9.53;8.40;;;9.10;99.90;;;;;;5029826;28;20467;-47
2022/09/29 03:20:04;;;;;;;10.03;9.00;;;9.20;99.90;;;;;;5029809;28;20599;-50
2022/09/29 03:22:30;;;;;;;13.50;9.13;;;9.10;99.90;;;;;;5029646;28;20453;-49
2022/09/29 03:24:56;;;;;;;9.43;8.53;;;9.20;99.90;;;;;;5029020;28;20439;-47
2022/09/29 03:27:21;;;;;;;10.17;9.17;;;9.20;99.90;;;;;;5032920;28;20417;-48
2022/09/29 03:29:47;;;;;;;9.43;8.43;;;9.20;99.90;;;;;;5033316;28;20206;-49
2022/09/29 03:32:12;;;;;;;11.30;8.60;;;9.20;99.90;;;;;;5033494;28;20190;-50
2022/09/29 03:34:38;;;;;;;9.50;8.57;;;9.20;99.90;;;;;;5032477;28;20182;-49
2022/09/29 03:37:04;;;;;;;9.17;8.27;;;9.20;99.90;;;;;;5033425;28;20197;-51
2022/09/29 03:39:29;;;;;;;9.40;8.00;;;9.40;99.90;;;;;;5033158;28;20194;-47
2022/09/29 03:41:56;;;;;;;9.50;8.57;;;9.10;99.90;;;;;;5033368;28;20187;-50
2022/09/29 03:44:21;;;;;;;9.87;8.70;;;9.20;99.90;;;;;;5032476;28;20273;-50
2022/09/29 03:46:47;;;;;;;12.03;8.90;;;9.20;99.90;;;;;;5033257;28;20512;-47
2022/09/29 03:49:17;;;;;;;9.47;8.50;;;9.20;99.90;;;;;;5032716;28;20213;-49
2022/09/29 03:51:43;;;;;;;10.10;8.73;;;9.10;99.90;;;;;;5033082;28;20183;-48
2022/09/29 03:54:09;;;;;;;9.40;8.07;;;9.10;99.90;;;;;;5029586;28;20776;-47
2022/09/29 03:56:36;;;;;;;9.60;7.90;;;8.80;99.90;;;;;;5033218;28;20452;-47
2022/09/29 03:59:04;;;;;;;7.77;6.97;;;8.70;99.90;;;;;;5032971;28;20413;-51
2022/09/29 04:01:30;;;;;;;8.70;7.90;;;8.50;99.90;;;;;;5032873;28;20833;-46
2022/09/29 04:03:57;;;;;;;8.87;7.50;;;8.40;99.90;;;;;;5032034;28;20414;-48
2022/09/29 04:06:23;;;;;;;9.00;7.80;;;8.30;99.90;;;;;;5032567;28;20441;-50
2022/09/29 04:08:49;;;;;;;8.90;8.00;;;8.20;99.90;;;;;;5032837;28;20928;-50
2022/09/29 04:11:15;;;;;;;11.37;9.00;;;8.30;99.90;;;;;;5032702;28;20460;-52
2022/09/29 04:13:40;;;;;;;9.60;8.60;;;8.20;99.90;;;;;;5032078;28;20179;-51
2022/09/29 04:16:07;;;;;;;11.33;9.37;;;8.30;99.90;;;;;;5032563;28;20428;-48
2022/09/29 04:18:32;;;;;;;9.10;8.03;;;8.20;99.90;;;;;;5032424;28;20266;-47
2022/09/29 04:20:59;;;;;;;12.90;8.30;;;8.30;99.90;;;;;;5033109;28;20579;-49
2022/09/29 04:23:29;;;;;;;9.87;7.73;;;8.40;99.90;;;;;;5031831;28;20197;-49
2022/09/29 04:25:56;;;;;;;9.80;8.80;;;8.60;99.90;;;;;;5032638;28;20433;-49
2022/09/29 04:28:23;;;;;;;9.60;8.60;;;8.40;99.90;;;;;;5032503;28;20421;-50
2022/09/29 04:30:48;;;;;;;12.10;9.60;;;8.40;99.90;;;;;;5032155;28;20461;-51
2022/09/29 04:33:14;;;;;;;10.70;9.30;;;8.30;99.90;;;;;;5031485;28;20428;-50
2022/09/29 04:35:40;;;;;;;9.63;8.47;;;8.20;99.90;;;;;;5032395;28;20185;-50
2022/09/29 04:38:07;;;;;;;9.30;8.30;;;8.40;99.90;;;;;;5032187;28;20189;-49
2022/09/29 04:40:33;;;;;;;11.37;9.40;;;8.20;99.90;;;;;;5032204;28;20429;-50
2022/09/29 04:42:59;;;;;;;10.90;9.17;;;8.20;99.90;;;;;;5030781;28;20432;-49
2022/09/29 04:45:25;;;;;;;10.13;9.10;;;8.20;99.90;;;;;;5030607;28;20980;-49
2022/09/29 04:47:50;;;;;;;10.90;9.23;;;8.40;99.90;;;;;;5031337;28;20222;-51
2022/09/29 04:50:16;;;;;;;10.10;9.10;;;8.60;99.90;;;;;;5031930;28;20222;-51
2022/09/29 04:52:42;;;;;;;9.83;8.80;;;8.40;99.90;;;;;;5031323;28;20630;-51
2022/09/29 04:55:10;;;;;;;11.40;8.43;;;8.50;99.90;;;;;;5030428;28;20190;-49
2022/09/29 04:57:37;;;;;;;11.87;9.17;;;8.50;99.90;;;;;;5031951;28;20758;-53
2022/09/29 05:00:04;;;;;;;11.57;9.63;;;8.40;99.90;;;;;;5031574;28;20457;-49
2022/09/29 05:02:30;;;;;;;11.43;9.60;;;8.30;99.90;;;;;;5031725;28;20457;-53
2022/09/29 05:04:56;;;;;;;12.00;10.13;;;8.30;99.90;;;;;;5030225;28;20477;-53
2022/09/29 05:07:21;;;;;;;10.40;9.30;;;8.10;99.90;;;;;;5031653;28;20191;-51
2022/09/29 05:09:47;;;;;;;14.97;9.40;;;7.60;99.90;;;;;;5031616;28;20556;-50
2022/09/29 05:12:13;;;;;;;14.37;10.17;;;8.10;99.90;;;;;;5031566;28;20210;-48
2022/09/29 05:14:39;;;;;;;11.20;10.00;;;8.30;99.90;;;;;;5030637;28;20456;-51
2022/09/29 05:17:04;;;;;;;11.20;9.73;;;8.20;99.90;;;;;;5031585;28;20445;-47
2022/09/29 05:19:31;;;;;;;12.13;9.33;;;8.50;99.90;;;;;;5031973;28;20179;-52
2022/09/29 05:21:57;;;;;;;11.37;10.07;;;8.40;99.90;;;;;;5031537;28;20190;-48
2022/09/29 05:24:23;;;;;;;11.80;9.67;;;8.20;99.90;;;;;;5029357;28;20423;-50
2022/09/29 05:26:49;;;;;;;10.40;9.07;;;8.30;99.90;;;;;;5031480;28;20963;-50
2022/09/29 05:29:15;;;;;;;11.07;9.43;;;8.20;99.90;;;;;;5030897;28;20201;-49
2022/09/29 05:31:40;;;;;;;10.20;9.20;;;8.10;99.90;;;;;;5031367;28;20545;-50
2022/09/29 05:34:06;;;;;;;11.23;9.63;;;8.10;99.90;;;;;;5030523;28;20432;-50
2022/09/29 05:36:31;;;;;;;11.67;10.47;;;7.90;99.90;;;;;;5031214;28;20205;-53
2022/09/29 05:38:57;;;;;;;11.30;9.60;;;8.30;99.90;;;;;;5030922;28;20178;-48
2022/09/29 05:41:23;;;;;;;9.83;8.87;;;8.20;99.90;;;;;;5031152;28;20202;-49
2022/09/29 05:43:52;;;;;;;11.27;9.20;;;8.10;99.90;;;;;;5029901;28;20425;-52
2022/09/29 05:46:18;;;;;;;9.43;8.43;;;8.10;99.90;;;;;;5031010;28;20213;-52
2022/09/29 05:48:45;;;;;;;10.87;9.60;;;7.90;99.90;;;;;;5030195;28;20425;-50
2022/09/29 05:51:16;;;;;;;10.63;9.53;;;8.10;99.90;;;;;;5030882;28;20507;-50
2022/09/29 05:53:42;;;;;;;12.20;10.40;;;8.00;99.90;;;;;;5029131;28;20429;-53
2022/09/29 05:56:10;;;;;;;10.53;9.43;;;7.80;99.90;;;;;;5030896;28;20463;-50
2022/09/29 05:58:37;;;;;;;11.53;10.33;;;7.90;99.90;;;;;;5029100;28;20422;-51
2022/09/29 06:01:11;;;;;;;16.20;10.43;;;8.10;99.90;;;;;;5030778;28;20423;-50
2022/09/29 06:03:36;;;;;;;12.83;10.70;;;8.20;99.90;;;;;;5029931;28;21081;-51
2022/09/29 06:06:09;;;;;;;11.17;9.97;;;8.50;99.90;;;;;;5030435;28;20538;-50
2022/09/29 06:08:36;;;;;;;11.10;9.73;;;8.30;99.90;;;;;;5030377;28;20205;-50
2022/09/29 06:11:11;;;;;;;11.30;9.87;;;8.40;99.90;;;;;;5030139;28;20453;-46
2022/09/29 06:13:38;;;;;;;11.20;10.00;;;8.40;99.90;;;;;;5029879;28;20417;-48
2022/09/29 06:16:03;;;;;;;11.53;10.37;;;8.40;99.90;;;;;;5030488;28;20428;-47
2022/09/29 06:18:30;;;;;;;10.73;9.63;;;8.40;99.90;;;;;;5030328;28;20422;-46
2022/09/29 06:21:10;;;;;;;12.17;10.93;;;8.30;99.90;;;;;;5031195;28;20273;-51
2022/09/29 06:23:36;;;;;;;12.37;11.07;;;8.50;99.90;;;;;;5029516;28;20836;-48
2022/09/29 06:26:06;;;;;;;11.47;10.30;;;8.60;99.90;;;;;;5030290;28;20434;-48
2022/09/29 06:28:32;;;;;;;9.97;8.97;;;8.70;99.90;;;;;;5030304;28;20425;-50
2022/09/29 06:31:12;;;;;;;11.17;9.73;;;8.70;99.90;;;;;;5029964;28;20460;-47
2022/09/29 06:33:38;;;;;;;12.27;9.83;;;8.80;99.90;;;;;;5029608;28;20423;-51
2022/09/29 06:39:08;;;;;;;10.77;9.43;;;8.70;99.90;;;;;;5030118;28;20425;-51
2022/09/29 06:41:34;;;;;;;12.10;10.10;;;8.80;99.90;;;;;;5030000;28;20438;-49
2022/09/29 06:44:00;;;;;;;10.97;9.77;;;8.80;99.90;;;;;;5029441;28;20832;-51
2022/09/29 06:46:26;;;;;;;11.13;9.97;;;9.00;99.90;;;;;;5029769;28;20520;-51
2022/09/29 06:48:53;;;;;;;9.97;8.83;;;8.90;99.90;;;;;;5029970;28;20516;-51
2022/09/29 06:51:21;;;;;;;10.43;8.50;;;9.20;99.90;;;;;;5029933;28;20276;-50
2022/09/29 06:53:47;;;;;;;9.57;8.40;;;9.20;99.90;;;;;;5027693;28;20472;-50
2022/09/29 06:56:13;;;;;;;10.50;9.50;;;9.10;99.90;;;;;;5029646;28;20787;-52
2022/09/29 06:58:39;;;;;;;12.73;9.70;;;9.30;99.90;;;;;;5029848;28;20429;-47
2022/09/29 07:01:05;;;;;;;10.80;9.20;;;9.20;99.90;;;;;;5030705;28;20626;-46
2022/09/29 07:03:30;;;;;;;11.17;9.90;;;9.20;99.90;;;;;;5033335;28;20190;-52
2022/09/29 07:05:57;;;;;;;10.40;8.90;;;8.90;99.90;;;;;;5033855;28;20225;-48
2022/09/29 07:08:22;;;;;;;9.67;8.73;;;9.40;99.90;;;;;;5033890;28;20425;-48
2022/09/29 07:10:48;;;;;;;10.83;9.13;;;9.60;99.90;;;;;;5033776;28;20468;-48
2022/09/29 07:13:13;;;;;;;10.70;9.30;;;9.40;99.90;;;;;;5031984;28;20273;-51
2022/09/29 07:15:39;;;;;;;10.13;8.90;;;9.60;99.90;;;;;;5033496;28;20224;-49
2022/09/29 07:18:05;;;;;;;10.50;9.03;;;9.70;99.90;;;;;;5033577;28;20274;-47
2022/09/29 07:20:31;;;;;;;11.13;9.93;;;9.80;99.90;;;;;;5033662;28;20194;-46
2022/09/29 07:22:57;;;;;;;10.80;8.90;;;10.00;99.90;;;;;;5032966;28;20269;-49
2022/09/29 07:25:23;;;;;;;10.70;9.60;;;10.20;99.90;;;;;;5033646;28;20487;-46
2022/09/29 07:27:50;;;;;;;9.50;8.60;;;10.40;99.90;;;;;;5021381;28;20454;-50
2022/09/29 07:30:17;;;;;;;10.20;9.20;;;10.60;99.90;;;;;;5053173;28;20558;-52
2022/09/29 07:32:43;;;;;;;9.37;8.47;;;10.90;99.90;;;;;;5052636;28;20851;-47
2022/09/29 07:35:09;;;;;;;10.30;8.53;;;11.10;99.90;;;;;;5053382;28;20424;-48
2022/09/29 07:37:34;;;;;;;9.17;8.27;;;11.30;99.90;;;;;;5053103;28;20760;-50
2022/09/29 07:40:00;;;;;;;11.20;8.43;;;11.40;99.90;;;;;;5053280;28;20220;-49
2022/09/29 07:42:29;;;;;;;10.53;9.10;;;11.60;99.90;;;;;;5052853;28;20186;-51
2022/09/29 07:44:55;;;;;;;7.97;7.20;;;11.80;99.90;;;;;;5052735;28;20505;-47
2022/09/29 07:47:21;;;;;;;8.87;8.03;;;11.90;99.90;;;;;;5053081;28;20931;-50
2022/09/29 07:49:47;;;;;;;9.10;8.20;;;12.10;99.90;;;;;;5043238;28;20487;-48
2022/09/29 07:52:14;;;;;;;9.50;8.60;;;12.20;99.90;;;;;;5032848;28;20460;-52
2022/09/29 07:54:40;;;;;;;8.87;7.97;;;12.20;99.90;;;;;;5031560;28;20428;-51
2022/09/29 07:57:06;;;;;;;8.90;7.70;;;12.40;99.90;;;;;;5032955;28;21015;-50
2022/09/29 07:59:31;;;;;;;9.40;8.30;;;12.50;99.90;;;;;;5032845;28;20417;-52
2022/09/29 08:01:57;;;;;;;8.50;7.70;;;12.60;99.90;;;;;;5032945;28;20191;-48
2022/09/29 08:04:23;;;;;;;8.60;7.80;;;12.60;99.90;;;;;;5032264;28;20190;-52
2022/09/29 08:06:49;;;;;;;12.37;8.70;;;12.60;99.90;;;;;;5032760;28;20191;-50
2022/09/29 08:09:15;;;;;;;8.53;7.70;;;12.70;99.90;;;;;;5032644;28;21135;-50
2022/09/29 08:11:42;;;;;;;10.03;8.07;;;12.80;99.90;;;;;;5032160;28;20580;-48
2022/09/29 08:14:09;;;;;;;8.60;7.80;;;12.80;99.90;;;;;;5031813;28;20241;-47
2022/09/29 08:16:36;;;;;;;8.30;7.57;;;12.90;99.90;;;;;;5032692;28;20413;-52
2022/09/29 08:19:03;;;;;;;9.10;7.43;;;13.00;99.90;;;;;;5032618;28;20795;-52
2022/09/29 08:21:30;;;;;;;8.87;8.07;;;13.00;99.90;;;;;;5031812;28;20515;-51
2022/09/29 08:23:56;;;;;;;7.97;7.27;;;12.90;99.90;;;;;;5030842;28;20441;-49
2022/09/29 08:26:22;;;;;;;9.27;8.23;;;12.90;99.90;;;;;;5031293;28;20815;-48
2022/09/29 08:28:48;;;;;;;9.03;7.90;;;13.00;99.90;;;;;;5032114;28;20248;-49
2022/09/29 08:31:20;;;;;;;7.83;6.80;;;13.00;99.90;;;;;;5032269;28;20468;-46
2022/09/29 08:33:50;;;;;;;12.10;7.60;;;13.10;99.90;;;;;;5031612;28;20204;-50
2022/09/29 08:36:19;;;;;;;10.93;7.77;;;13.20;99.90;;;;;;5032343;28;20421;-48
2022/09/29 08:38:47;;;;;;;10.07;8.30;;;13.30;99.90;;;;;;5032084;28;20514;-49
2022/09/29 08:41:26;;;;;;;8.13;7.33;;;13.40;99.90;;;;;;5032207;28;21082;-51
2022/09/29 08:43:56;;;;;;;8.27;7.47;;;13.40;99.90;;;;;;5031242;28;20425;-48
2022/09/29 08:46:30;;;;;;;9.00;8.10;;;13.50;99.90;;;;;;5032233;28;20884;-52
2022/09/29 08:48:58;;;;;;;8.07;7.27;;;13.50;99.90;;;;;;5031825;28;20448;-50
2022/09/29 08:51:31;;;;;;;7.20;6.50;;;13.60;99.90;;;;;;5031800;28;20476;-48
2022/09/29 08:54:04;;;;;;;6.90;6.30;;;13.60;99.90;;;;;;5030601;28;20830;-49
2022/09/29 08:56:30;;;;;;;7.53;6.83;;;13.70;99.90;;;;;;5032084;28;20436;-46
2022/09/29 08:58:56;;;;;;;5.87;5.37;;;13.80;99.90;;;;;;5031922;28;20927;-49
2022/09/29 09:01:30;;;;;;;9.50;5.80;;;13.90;99.90;;;;;;5031823;28;20512;-49
2022/09/29 09:04:08;;;;;;;5.77;5.00;;;14.00;99.90;;;;;;5030953;28;20234;-51
2022/09/29 09:06:49;;;;;;;6.97;5.90;;;14.00;99.90;;;;;;5031692;28;20455;-50
2022/09/29 09:09:47;;;;;;;6.10;5.50;;;14.10;99.90;;;;;;5030323;28;20421;-47
2022/09/29 09:12:27;;;;;;;5.60;4.83;;;14.10;99.90;;;;;;5031126;28;20437;-47
2022/09/29 09:15:14;;;;;;;5.33;4.83;;;14.30;99.90;;;;;;5031053;28;20460;-49
2022/09/29 09:18:02;;;;;;;7.37;5.90;;;14.40;99.90;;;;;;5031674;28;20425;-50
2022/09/29 09:20:37;;;;;;;7.00;5.73;;;14.40;99.90;;;;;;5032004;28;20785;-49
2022/09/29 09:23:41;;;;;;;5.67;5.17;;;14.50;99.90;;;;;;5029134;28;20436;-49
2022/09/29 09:26:09;;;;;;;5.50;5.00;;;14.50;99.90;;;;;;5019909;28;20516;-48
2022/09/29 09:28:57;;;;;;;6.63;5.20;;;14.70;99.90;;;;;;5031495;28;20428;-52
2022/09/29 09:31:34;;;;;;;5.70;5.20;;;15.00;99.90;;;;;;5031161;28;20465;-52
2022/09/29 09:34:17;;;;;;;5.73;4.70;;;15.10;99.90;;;;;;5030799;28;20425;-49
2022/09/29 09:36:48;;;;;;;5.17;3.87;;;15.20;99.90;;;;;;5031150;28;20456;-52
2022/09/29 09:39:19;;;;;;;6.03;5.00;;;15.40;99.90;;;;;;5029624;28;20431;-49
2022/09/29 09:41:49;;;;;;;5.50;4.50;;;15.60;99.90;;;;;;5031147;28;20413;-48
2022/09/29 09:44:25;;;;;;;5.73;4.33;;;15.70;99.90;;;;;;5030446;28;20463;-52
2022/09/29 09:47:01;;;;;;;4.90;4.33;;;15.70;99.90;;;;;;5031079;28;20425;-50
2022/09/29 09:49:40;;;;;;;6.77;4.03;;;15.70;99.90;;;;;;5030721;28;20519;-53
2022/09/29 09:52:11;;;;;;;3.50;3.10;;;15.80;99.90;;;;;;5030821;28;20420;-51
2022/09/29 09:54:44;;;;;;;2.80;2.50;;;15.90;99.90;;;;;;5029364;28;20423;-49
2022/09/29 09:57:45;;;;;;;5.13;3.70;;;16.00;99.90;;;;;;5030638;28;20420;-50
2022/09/29 10:00:12;;;;;;;3.50;3.20;;;15.80;99.90;;;;;;5029209;28;20425;-47
2022/09/29 10:02:47;;;;;;;6.40;4.37;;;15.60;99.90;;;;;;5030371;28;20518;-49
2022/09/29 10:05:15;;;;;;;4.27;3.20;;;15.50;99.90;;;;;;5030378;28;20460;-49
2022/09/29 10:07:41;;;;;;;5.17;3.20;;;15.50;99.90;;;;;;5030521;28;20429;-50
2022/09/29 10:10:22;;;;;;;5.73;3.20;;;15.40;99.90;;;;;;5030527;28;20465;-50
2022/09/29 10:13:02;;;;;;;4.20;3.80;;;15.20;99.90;;;;;;5029661;28;20432;-48
2022/09/29 10:15:35;;;;;;;3.53;3.23;;;15.00;99.90;;;;;;5030586;28;20413;-49
2022/09/29 10:18:35;;;;;;;5.70;4.50;;;15.00;99.90;;;;;;5030383;28;20535;-50
2022/09/29 10:21:01;;;;;;;4.90;4.50;;;15.20;99.90;;;;;;5030069;28;20527;-54
2022/09/29 10:23:32;;;;;;;5.50;4.93;;;15.30;99.90;;;;;;5029834;28;20494;-47
2022/09/29 10:26:14;;;;;;;4.40;4.00;;;15.20;99.90;;;;;;5030462;28;20425;-51
2022/09/29 10:28:51;;;;;;;4.47;4.00;;;15.00;99.90;;;;;;5030234;28;20428;-46
2022/09/29 10:31:19;;;;;;;3.90;3.47;;;14.90;99.90;;;;;;5029869;28;20464;-48
2022/09/29 10:33:50;;;;;;;4.07;3.50;;;14.70;99.90;;;;;;5029273;28;20445;-51
2022/09/29 10:36:19;;;;;;;3.90;3.43;;;14.70;99.90;;;;;;5030092;28;20431;-49
2022/09/29 10:38:50;;;;;;;3.83;3.50;;;14.80;99.90;;;;;;5030163;28;20482;-53
2022/09/29 10:41:18;;;;;;;4.47;4.03;;;15.10;99.90;;;;;;5030217;28;20425;-51
2022/09/29 10:43:45;;;;;;;4.50;4.10;;;15.20;99.90;;;;;;5029195;28;20519;-54
2022/09/29 10:46:50;;;;;;;5.00;3.63;;;15.30;99.90;;;;;;5029988;28;20439;-49
2022/09/29 10:49:19;;;;;;;3.70;2.87;;;15.30;99.90;;;;;;5028699;28;20783;-52
2022/09/29 10:52:03;;;;;;;2.43;2.23;;;15.50;99.90;;;;;;5030105;28;20432;-52
2022/09/29 10:54:39;;;;;;;3.23;2.13;;;15.50;99.90;;;;;;5028302;28;20523;-52
2022/09/29 10:57:14;;;;;;;3.30;1.90;;;15.50;99.90;;;;;;5030041;28;20409;-50
2022/09/29 10:59:52;;;;;;;2.60;2.40;;;15.60;99.90;;;;;;5029969;28;20413;-52
2022/09/29 11:02:27;;;;;;;2.70;2.30;;;15.70;99.90;;;;;;5029987;28;20912;-53
2022/09/29 11:04:56;;;;;;;3.53;2.00;;;15.60;99.90;;;;;;5029003;28;20512;-48
2022/09/29 11:07:21;;;;;;;1.40;1.30;;;15.60;99.90;;;;;;5017697;28;20425;-50
2022/09/29 11:09:49;;;;;;;2.30;1.47;;;15.60;99.90;;;;;;5029674;28;20457;-50
2022/09/29 11:12:38;;;;;;;1.40;1.20;;;15.60;99.40;;;;;;5029818;28;20332;-48
2022/09/29 11:15:26;;;;;;;4.50;2.40;;;15.80;99.90;;;;;;5029283;28;20516;-54
2022/09/29 11:17:52;;;;;;;5.10;3.40;;;15.90;99.80;;;;;;5029757;28;20413;-51
2022/09/29 11:20:22;;;;;;;4.90;2.67;;;16.00;99.90;;;;;;5030271;28;21092;-51
2022/09/29 11:23:06;;;;;;;2.83;1.97;;;16.00;97.90;;;;;;5029172;28;20490;-50
2022/09/29 11:25:47;;;;;;;1.67;1.57;;;16.10;99.70;;;;;;5029406;28;20452;-50
2022/09/29 11:28:21;;;;;;;2.80;2.40;;;16.30;98.90;;;;;;5029809;28;20428;-52
2022/09/29 11:31:16;;;;;;;3.50;2.70;;;16.30;98.70;;;;;;5029414;28;20914;-50
2022/09/29 11:34:06;;;;;;;3.10;2.63;;;16.30;98.30;;;;;;5028409;28;20425;-52
2022/09/29 11:36:51;;;;;;;1.97;1.40;;;16.30;99.40;;;;;;5029755;28;20417;-54
2022/09/29 11:39:28;;;;;;;2.53;2.00;;;16.30;99.30;;;;;;5028287;28;20424;-53
2022/09/29 11:42:14;;;;;;;4.47;2.30;;;16.40;98.40;;;;;;5029555;28;20420;-51
2022/09/29 11:44:49;;;;;;;2.57;2.33;;;16.60;99.40;;;;;;5029076;28;20412;-49
2022/09/29 11:47:43;;;;;;;2.40;2.20;;;16.70;98.80;;;;;;5030885;28;20437;-50
2022/09/29 11:50:33;;;;;;;1.70;1.60;;;16.80;99.10;;;;;;5032963;28;20791;-54
2022/09/29 11:53:26;;;;;;;2.27;1.50;;;16.90;97.50;;;;;;5031262;28;20468;-53
2022/09/29 11:56:24;;;;;;;2.40;2.20;;;16.90;96.40;;;;;;5031812;28;20451;-51
2022/09/29 11:59:05;;;;;;;3.20;2.13;;;17.00;98.30;;;;;;5032917;28;20424;-51
2022/09/29 12:01:50;;;;;;;3.60;1.80;;;17.20;99.10;;;;;;5032968;28;20412;-48
2022/09/29 12:04:21;;;;;;;2.00;1.80;;;17.30;98.50;;;;;;5032374;28;20774;-52
2022/09/29 12:07:15;;;;;;;1.83;1.53;;;17.30;96.40;;;;;;5032750;28;20432;-47
2022/09/29 12:09:55;;;;;;;2.23;1.47;;;17.20;96.40;;;;;;5026586;28;20795;-49
2022/09/29 12:12:33;;;;;;;3.73;2.00;;;16.90;95.70;;;;;;5031252;28;20779;-49
2022/09/29 12:14:59;;;;;;;2.67;1.67;;;16.60;96.40;;;;;;5031964;28;20404;-52
2022/09/29 12:17:30;;;;;;;3.70;1.87;;;16.40;95.60;;;;;;5032694;28;20459;-52
2022/09/29 12:20:02;;;;;;;3.80;1.47;;;16.40;97.10;;;;;;5032995;28;20437;-53
2022/09/29 12:22:28;;;;;;;1.50;1.37;;;16.60;97.90;;;;;;5032451;28;20516;-51
2022/09/29 12:24:58;;;;;;;2.50;1.77;;;16.80;97.50;;;;;;5032123;28;20421;-49
2022/09/29 12:27:38;;;;;;;3.80;2.10;;;16.90;95.90;;;;;;5032517;28;20479;-50
2022/09/29 12:30:14;;;;;;;6.53;2.10;;;17.10;97.30;;;;;;5032205;28;20839;-51
2022/09/29 12:33:05;;;;;;;2.43;1.97;;;17.20;98.70;;;;;;5031859;28;20456;-49
2022/09/29 12:35:41;;;;;;;2.30;2.10;;;17.40;98.50;;;;;;5031109;28;20420;-50
2022/09/29 12:38:36;;;;;;;2.13;1.93;;;17.60;98.10;;;;;;5032395;28;20934;-49
2022/09/29 12:41:16;;;;;;;6.33;2.10;;;17.60;98.40;;;;;;5032280;28;20791;-48
2022/09/29 12:43:55;;;;;;;1.97;1.80;;;17.70;99.10;;;;;;5031662;28;20494;-52
2022/09/29 12:46:35;;;;;;;2.20;1.70;;;17.80;97.60;;;;;;5032313;28;20432;-47
2022/09/29 12:49:07;;;;;;;3.70;2.33;;;17.60;96.70;;;;;;5031747;28;20440;-52
2022/09/29 12:51:45;;;;;;;1.90;1.60;;;17.60;97.80;;;;;;5031984;28;20555;-49
2022/09/29 12:54:11;;;;;;;2.13;1.93;;;17.60;98.60;;;;;;5030512;28;20421;-51
2022/09/29 12:56:48;;;;;;;2.33;1.90;;;17.40;97.90;;;;;;5031814;28;20412;-50
2022/09/29 12:59:28;;;;;;;2.90;2.00;;;17.10;98.40;;;;;;5030584;28;21095;-52
2022/09/29 13:01:56;;;;;;;2.63;1.93;;;17.00;99.60;;;;;;5031835;28;20413;-54
2022/09/29 13:04:56;;;;;;;2.70;1.90;;;17.10;99.80;;;;;;5031353;28;20429;-51
2022/09/29 13:07:33;;;;;;;2.10;1.80;;;17.20;97.60;;;;;;5030355;28;20434;-53
2022/09/29 13:10:31;;;;;;;2.33;1.80;;;17.00;98.50;;;;;;5031749;28;20998;-52
2022/09/29 13:13:23;;;;;;;2.27;1.70;;;16.80;96.30;;;;;;5030345;28;20428;-54
2022/09/29 13:15:56;;;;;;;2.17;1.50;;;16.90;97.70;;;;;;5030342;28;20920;-51